Latest Weather Observations for Mount Gambier

IDS60801

Issued at 4:31 am CST Thursday 5 May 2016 (issued every 30 minutes, with the page automatically refreshed every 10 minutes)

About weather observations | Map of weather stations | Latest weather observations for SA | Other Formats
Station Details ID: 026021 Name: MOUNT GAMBIER AERO Lat: -37.75 Lon: 140.77 Height: 63.0 m
Data from the previous 72 hours. | See also: Recent months at Mount Gambier
Date/Time
CST
Temp
°C
App
Temp
°C
Dew
Point
Rel
Hum
%
Delta-T
°C
Wind Press
QNH
hPa
Press
MSL
hPa
Rain
since 9 am
mm
Dir
 
Spd
km/h
Gust
km/h
Spd
kts
Gust
kts
05/04:30am 14.0 10.1 10.8 81 1.7 N 22 26 12 14 1011.9 1011.9 -
05/04:00am 13.9 10.5 10.7 81 1.7 N 19 26 10 14 1011.9 1011.9 0.0
05/03:30am 13.9 10.9 10.7 81 1.7 N 17 24 9 13 1011.9 1011.9 0.0
05/03:00am 14.0 11.4 10.8 81 1.7 N 15 24 8 13 1012.2 1012.2 0.0
05/02:30am 13.7 11.2 11.1 84 1.4 N 15 19 8 10 1012.5 1012.5 0.0
05/02:00am 13.4 10.1 11.5 88 1.0 N 20 30 11 16 1012.6 1012.6 0.0
05/01:30am 13.6 10.2 11.3 86 1.2 N 20 32 11 17 1012.8 1012.8 0.0
05/01:00am 14.0 10.4 10.6 80 1.8 N 20 30 11 16 1012.7 1012.7 0.0
05/12:30am 13.9 10.3 10.5 80 1.8 N 20 33 11 18 1012.7 1012.7 0.0
05/12:00am 14.0 10.4 10.4 79 1.9 N 20 32 11 17 1013.0 1013.0 0.0
 
Date/Time
CST
Temp
°C
App
Temp
°C
Dew
Point
Rel
Hum
%
Delta-T
°C
Wind Press
QNH
hPa
Press
MSL
hPa
Rain
since 9 am
mm
Dir
 
Spd
km/h
Gust
km/h
Spd
kts
Gust
kts
04/11:30pm 13.8 9.3 10.1 78 1.9 N 24 37 13 20 1013.1 1013.1 0.0
04/11:00pm 13.5 10.0 10.2 80 1.7 N 19 33 10 18 1013.2 1013.2 0.0
04/10:30pm 13.4 9.9 10.1 80 1.7 N 19 30 10 16 1013.4 1013.4 0.0
04/10:00pm 13.6 10.0 9.9 78 1.9 N 19 30 10 16 1013.6 1013.6 0.0
04/09:30pm 13.7 10.1 9.8 77 2.0 N 19 30 10 16 1013.8 1013.8 0.0
04/09:00pm 13.7 9.8 9.6 76 2.1 N 20 32 11 17 1013.7 1013.7 0.0
04/08:30pm 13.8 10.0 9.7 76 2.1 N 20 33 11 18 1013.7 1013.7 0.0
04/08:00pm 13.4 9.3 10.1 80 1.7 NNW 22 32 12 17 1013.7 1013.7 0.0
04/07:30pm 13.5 9.3 9.6 77 2.0 NNW 22 32 12 17 1013.6 1013.6 0.0
04/07:00pm 13.4 9.7 9.3 76 2.1 NNW 19 26 10 14 1013.5 1013.5 0.0
04/06:30pm 13.4 9.9 8.8 74 2.3 NNW 17 26 9 14 1013.3 1013.3 0.0
04/06:00pm 13.9 10.0 8.8 71 2.6 NNW 19 28 10 15 1013.1 1013.1 0.0
04/05:30pm 14.3 10.7 8.3 67 3.0 NNW 17 24 9 13 1012.7 1012.7 0.0
04/05:00pm 14.2 10.3 8.7 69 2.8 NNW 19 30 10 16 1012.7 1012.7 0.0
04/04:30pm 15.2 9.3 7.3 59 3.9 NNW 28 39 15 21 1012.4 1012.4 0.0
04/04:00pm 15.2 10.6 8.3 63 3.5 NW 22 32 12 17 1012.3 1012.3 0.0
04/03:30pm 15.5 10.8 9.1 65 3.3 NNW 24 35 13 19 1012.1 1012.1 0.0
04/03:00pm 14.6 10.3 9.4 71 2.7 NW 22 30 12 16 1012.4 1012.4 0.0
04/02:30pm 15.6 9.7 7.6 59 4.0 NNW 28 39 15 21 1012.3 1012.3 0.0
04/02:00pm 15.9 10.2 8.4 61 3.8 NNW 28 39 15 21 1012.3 1012.3 0.0
04/01:30pm 15.4 10.8 8.3 62 3.6 NNW 22 35 12 19 1012.7 1012.7 0.0
04/01:00pm 14.0 9.7 10.8 81 1.7 NW 24 32 13 17 1013.1 1013.1 0.0
04/12:30pm 14.5 8.9 7.2 61 3.6 NNW 26 35 14 19 1013.4 1013.4 0.0
04/12:00pm 14.7 10.2 8.6 67 3.1 N 22 32 12 17 1013.6 1013.6 0.0
04/11:30am 14.7 10.7 9.2 69 2.8 NNW 20 30 11 16 1014.1 1014.1 0.0
04/11:00am 14.0 9.2 8.9 71 2.6 NNW 24 32 13 17 1014.3 1014.3 0.0
04/10:30am 14.3 10.0 9.4 72 2.5 N 22 32 12 17 1014.3 1014.3 0.0
04/10:00am 13.5 9.5 9.2 75 2.2 NNW 20 30 11 16 1014.2 1014.2 0.0
04/09:30am 11.5 7.5 8.2 80 1.6 N 19 30 10 16 1014.0 1014.0 0.0
04/09:00am 11.6 7.7 8.8 83 1.4 N 19 26 10 14 1014.0 1014.0 -
04/08:30am 10.2 6.2 8.1 87 1.0 N 19 22 10 12 1014.1 1014.1 -
04/08:00am 8.1 3.8 7.0 93 0.5 N 19 24 10 13 1014.0 1014.0 -
04/07:30am 7.8 3.9 6.9 94 0.4 N 17 20 9 11 1013.5 1013.5 -
04/07:00am 7.6 4.4 7.0 96 0.3 NNW 13 17 7 9 1013.3 1013.3 -
04/06:30am 8.4 4.6 7.6 95 0.4 N 17 20 9 11 1012.7 1012.7 -
04/06:00am 8.0 4.1 6.9 93 0.5 N 17 20 9 11 1012.1 1012.1 -
04/05:30am 7.6 3.6 6.7 94 0.4 N 17 20 9 11 1012.0 1012.0 -
04/05:00am 7.8 4.1 6.5 91 0.6 N 15 20 8 11 1011.7 1011.7 -
04/04:30am 7.6 4.7 6.5 93 0.5 N 11 15 6 8 1011.4 1011.4 -
04/04:00am 8.1 4.7 6.1 87 0.9 NW 13 17 7 9 1011.4 1011.4 -
04/03:30am 8.2 4.9 6.2 87 0.9 NNW 13 19 7 10 1011.0 1011.0 -
04/03:00am 7.9 4.1 5.9 87 0.9 NNW 15 17 8 9 1010.9 1010.9 0.0
04/02:30am 7.9 4.5 5.9 87 0.9 NNW 13 15 7 8 1010.9 1010.9 -
04/02:00am 7.7 5.0 5.7 87 0.9 NNW 9 15 5 8 1010.8 1010.8 -
04/01:30am 8.9 5.5 6.1 82 1.3 WNW 13 17 7 9 1010.5 1010.6 -
04/01:00am 9.5 5.3 5.6 76 1.8 NW 17 19 9 10 1009.9 1010.0 -
04/12:30am 9.1 5.6 5.4 77 1.7 NNW 13 15 7 8 1009.8 1009.9 -
04/12:00am 9.6 6.2 5.7 76 1.8 WNW 13 15 7 8 1009.8 1009.9 -
 
Date/Time
CST
Temp
°C
App
Temp
°C
Dew
Point
Rel
Hum
%
Delta-T
°C
Wind Press
QNH
hPa
Press
MSL
hPa
Rain
since 9 am
mm
Dir
 
Spd
km/h
Gust
km/h
Spd
kts
Gust
kts
03/11:30pm 10.2 6.4 5.9 74 2.0 WNW 15 19 8 10 1009.8 1009.9 -
03/11:00pm 9.8 6.0 5.7 75 1.9 WNW 15 19 8 10 1009.8 1009.9 -
03/10:30pm 10.1 6.0 6.0 76 1.9 WNW 17 24 9 13 1009.6 1009.7 -
03/10:00pm 10.7 6.6 6.2 74 2.1 W 17 26 9 14 1009.5 1009.6 -
03/09:30pm 10.7 7.0 6.5 75 2.0 WNW 15 17 8 9 1009.0 1009.1 -
03/09:00pm 10.4 6.8 6.6 77 1.8 W 15 20 8 11 1008.7 1008.8 0.4
03/08:30pm 10.3 7.2 7.2 81 1.5 WNW 13 15 7 8 1008.2 1008.3 -
03/08:00pm 10.5 7.4 7.4 81 1.5 NW 13 17 7 9 1007.8 1007.9 -
03/07:30pm 10.7 6.6 8.0 83 1.3 WNW 19 24 10 13 1007.3 1007.4 -
03/07:14pm 11.3 6.1 7.1 75 2.0 W 24 37 13 20 1007.0 1007.1 -
03/07:00pm 10.7 7.7 7.6 81 1.5 NW 13 15 7 8 1006.7 1006.7 -
03/06:30pm 10.6 6.9 7.9 83 1.3 NNW 17 20 9 11 1006.3 1006.3 -
03/06:00pm 10.8 7.4 7.5 80 1.6 NW 15 20 8 11 1005.6 1005.6 -
03/05:30pm 10.9 6.6 8.0 82 1.4 NW 20 32 11 17 1005.2 1005.2 -
03/05:00pm 11.9 8.0 6.9 71 2.4 WNW 17 20 9 11 1004.6 1004.6 -
03/04:30pm 12.6 5.8 5.3 61 3.4 W 30 35 16 19 1004.2 1004.2 -
03/04:00pm 13.9 4.2 2.7 46 5.0 W 43 56 23 30 1003.5 1003.5 -
03/03:53pm 14.0 5.8 2.9 47 5.0 WNW 35 56 19 30 1003.3 1003.3 -
03/03:30pm 14.3 6.3 3.6 48 4.9 WNW 35 50 19 27 1003.0 1003.0 -
03/03:22pm 13.9 5.2 3.9 51 4.6 W 39 57 21 31 1002.9 1002.9 -
03/03:00pm - - - - - W 37 52 20 28 - - -
03/02:42pm 14.2 5.4 3.7 49 4.8 W 39 61 21 33 1002.3 1002.3 2.8
03/02:30pm 14.4 6.8 5.6 55 4.2 W 35 50 19 27 1002.1 1002.1 2.8
03/02:00pm 13.8 5.7 6.8 62 3.4 W 39 57 21 31 1001.9 1001.9 2.8
03/01:41pm 14.1 6.0 7.0 62 3.5 W 39 59 21 32 1001.8 1001.8 2.8
03/01:30pm 14.2 6.1 6.9 61 3.6 W 39 54 21 29 1001.6 1001.6 2.8
03/01:14pm 13.9 6.7 7.7 66 3.1 WNW 35 54 19 29 1001.6 1001.6 2.8
03/01:00pm 13.7 5.8 7.9 68 2.9 W 39 54 21 29 1001.6 1001.6 2.8
03/12:30pm 13.8 6.0 8.2 69 2.8 WNW 39 57 21 31 1001.1 1001.1 2.8
03/12:13pm 13.7 6.6 9.4 75 2.2 W 37 56 20 30 1001.0 1001.0 2.8
03/12:00pm 14.4 8.3 10.6 78 2.0 W 33 46 18 25 1000.8 1000.8 2.8
03/11:47am 13.8 6.4 10.0 78 2.0 W 39 57 21 31 1000.9 1000.9 2.8
03/11:46am 13.7 6.0 10.3 80 1.8 W 41 57 22 31 1000.9 1000.9 2.8
03/11:45am 13.7 6.4 10.3 80 1.8 W 39 57 21 31 1000.9 1000.9 2.8
03/11:39am 13.7 6.8 10.3 80 1.8 W 37 54 20 29 1000.8 1000.8 2.6
03/11:37am 13.7 7.3 10.7 82 1.6 W 35 54 19 29 1000.7 1000.7 2.6
03/11:30am 13.7 7.9 12.6 93 0.6 W 35 50 19 27 1000.7 1000.7 2.6
03/11:17am 13.3 6.5 12.0 92 0.7 WNW 39 52 21 28 1000.6 1000.6 2.2
03/11:02am 13.9 7.7 12.6 92 0.7 W 37 50 20 27 1000.4 1000.4 1.6
03/11:00am 13.8 7.2 12.5 92 0.7 W 39 54 21 29 1000.3 1000.3 1.6
03/10:58am 13.7 7.1 12.6 93 0.6 W 39 54 21 29 1000.2 1000.2 1.6
03/10:41am 13.3 7.7 12.0 92 0.7 WNW 33 54 18 29 1000.2 1000.2 1.4
03/10:36am 14.7 10.2 12.7 88 1.1 WNW 28 48 15 26 999.5 999.5 0.8
03/10:30am 14.8 10.0 13.0 89 1.0 WNW 30 39 16 21 999.3 999.3 0.8
03/10:03am 13.8 8.4 12.7 93 0.6 WNW 33 52 18 28 999.3 999.3 0.8
03/10:00am 14.0 8.3 12.9 93 0.6 WNW 35 46 19 25 999.3 999.3 0.8
03/09:58am 13.9 8.1 12.6 92 0.7 WNW 35 48 19 26 999.2 999.2 0.8
03/09:40am 14.0 7.9 12.9 93 0.6 WNW 37 61 20 33 999.0 999.0 0.8
03/09:39am 14.2 8.5 13.1 93 0.6 WNW 35 54 19 29 998.9 998.9 0.8
03/09:38am 14.5 9.3 13.4 93 0.6 WNW 33 52 18 28 998.9 998.9 0.6
03/09:36am 15.0 10.1 13.8 92 0.7 NW 32 52 17 28 998.8 998.8 0.6
03/09:30am 15.5 11.4 13.7 89 1.0 NW 28 39 15 21 998.5 998.5 0.0
03/09:00am 14.1 9.7 12.8 92 0.7 NW 28 39 15 21 998.5 998.5 8.8
03/08:30am 13.2 8.5 11.9 92 0.7 NW 28 41 15 22 998.8 998.8 8.8
03/08:20am 13.0 8.3 11.9 93 0.6 NW 28 37 15 20 998.7 998.7 8.8
03/08:00am 13.0 5.7 11.5 91 0.8 WNW 41 54 22 29 999.0 999.0 8.6
03/07:44am 13.5 8.0 12.6 94 0.5 WNW 33 70 18 38 998.8 998.8 8.4
03/07:39am 14.1 9.1 13.4 96 0.4 NW 32 44 17 24 998.6 998.6 8.0
03/07:30am 14.0 8.8 13.5 97 0.3 NW 33 50 18 27 998.2 998.2 7.8
03/07:25am 13.9 8.7 13.4 97 0.3 NW 33 50 18 27 998.1 998.1 7.6
03/07:10am 13.7 8.7 13.5 99 0.1 WNW 32 48 17 26 998.3 998.3 7.6
03/07:00am 13.6 8.4 13.4 99 0.1 NW 33 44 18 24 998.4 998.4 7.6
03/06:50am 13.4 8.1 13.2 99 0.1 NW 33 52 18 28 998.2 998.2 7.4
03/06:41am 13.2 7.5 13.0 99 0.1 NW 35 50 19 27 998.2 998.2 7.4
03/06:37am 13.0 6.8 12.8 99 0.1 NW 37 50 20 27 998.3 998.3 7.4
03/06:30am 13.1 5.9 13.1 100 0.0 NW 43 61 23 33 998.2 998.2 7.4
03/06:22am 13.7 7.8 13.7 100 0.0 WNW 37 61 20 33 998.5 998.5 7.4
03/06:08am 14.2 8.8 14.0 99 0.1 NNW 35 48 19 26 997.9 997.9 4.8
03/06:03am 14.2 8.8 14.0 99 0.1 NNW 35 48 19 26 997.7 997.7 4.8
03/06:00am 14.1 9.1 14.1 100 0.0 NNW 33 48 18 26 997.6 997.6 4.8
03/05:34am 14.0 9.6 14.0 100 0.0 NNW 30 48 16 26 997.8 997.8 4.4
03/05:30am 14.0 9.0 14.0 100 0.0 NNW 33 48 18 26 997.9 997.9 4.2
03/05:20am 14.0 9.0 14.0 100 0.0 NNW 33 54 18 29 998.0 998.0 4.0
03/05:16am 14.0 9.0 14.0 100 0.0 NNW 33 54 18 29 998.0 998.0 3.8
03/05:00am 14.0 8.2 14.0 100 0.0 NNW 37 50 20 27 998.1 998.1 3.8
03/04:48am 14.0 9.0 14.0 100 0.0 NNW 33 52 18 28 998.2 998.2 3.8
03/04:44am 14.0 8.6 14.0 100 0.0 NNW 35 48 19 26 998.4 998.4 3.8
03/04:37am 14.0 8.2 14.0 100 0.0 NNW 37 56 20 30 998.5 998.5 3.8
03/04:30am 14.0 7.9 14.0 100 0.0 NNW 39 54 21 29 998.7 998.7 3.8
03/04:00am 13.9 8.1 13.9 100 0.0 NNW 37 52 20 28 998.4 998.4 2.8
03/03:30am 14.3 9.4 13.6 96 0.4 NNW 32 52 17 28 998.7 998.7 2.0
03/03:01am 14.4 9.2 13.5 94 0.5 NNW 33 52 18 28 999.2 999.2 1.4
03/03:00am 14.4 9.2 13.5 94 0.5 NNW 33 44 18 24 999.2 999.2 1.4
03/02:39am 14.4 9.4 13.5 94 0.5 NNW 32 52 17 28 999.7 999.7 1.2
03/02:37am 14.4 9.4 13.5 94 0.5 NNW 32 52 17 28 999.8 999.8 1.0
03/02:35am 14.5 9.5 13.4 93 0.6 NNW 32 48 17 26 999.9 999.9 1.0
03/02:30am 14.4 8.9 13.5 94 0.5 NNW 35 48 19 26 1000.0 1000.0 0.8
03/02:18am 14.4 8.1 13.5 94 0.5 NNW 39 57 21 31 1000.0 1000.0 0.8
03/02:11am 14.5 8.2 13.4 93 0.6 NNW 39 57 21 31 1000.1 1000.1 0.8
03/02:00am 14.7 8.8 13.5 92 0.7 NNW 37 52 20 28 1000.1 1000.1 0.4
03/01:47am 15.0 8.6 13.2 89 1.0 NNW 39 72 21 39 1000.2 1000.2 0.4
03/01:33am 15.5 9.0 13.0 85 1.4 NNW 39 57 21 31 1000.4 1000.4 0.4
03/01:30am 15.4 9.3 13.1 86 1.3 NNW 37 52 20 28 1000.4 1000.4 0.2
03/01:21am 15.2 9.6 13.2 88 1.1 NNW 35 48 19 26 1000.7 1000.7 0.2
03/01:01am 14.9 8.6 13.5 91 0.8 NNW 39 57 21 31 1001.0 1001.0 0.2
03/01:00am 14.9 8.2 13.5 91 0.8 NNW 41 57 22 31 1001.1 1001.1 0.2
03/12:50am 15.2 8.0 13.2 88 1.1 NNW 43 61 23 33 1001.3 1001.3 0.0
03/12:33am 15.2 9.1 13.1 87 1.2 NNW 37 56 20 30 1001.3 1001.3 0.0
03/12:30am 15.4 8.9 12.9 85 1.4 NNW 39 56 21 30 1001.4 1001.4 0.0
03/12:01am 15.8 9.1 12.4 80 1.9 NNW 39 57 21 31 1001.6 1001.6 0.0
03/12:00am 15.8 8.8 12.4 80 1.9 NNW 41 57 22 31 1001.6 1001.6 0.0
 
Date/Time
CST
Temp
°C
App
Temp
°C
Dew
Point
Rel
Hum
%
Delta-T
°C
Wind Press
QNH
hPa
Press
MSL
hPa
Rain
since 9 am
mm
Dir
 
Spd
km/h
Gust
km/h
Spd
kts
Gust
kts
02/11:30pm 15.9 9.5 12.1 78 2.1 NNW 37 57 20 31 1002.0 1002.0 0.0
02/11:00pm 16.0 9.5 11.8 76 2.3 NNW 37 56 20 30 1002.0 1002.0 0.0
02/10:36pm 15.8 9.5 12.2 79 2.0 NNW 37 57 20 31 1002.7 1002.7 0.0
02/10:30pm 15.7 9.4 12.3 80 1.9 NNW 37 52 20 28 1002.8 1002.8 0.0
02/10:16pm 15.7 10.7 12.1 79 2.0 NNW 30 48 16 26 1002.9 1002.9 0.0
02/10:00pm 15.6 9.9 11.9 78 2.0 NNW 33 48 18 26 1003.1 1003.1 0.0
02/09:30pm 15.4 9.7 11.7 78 2.0 NNW 33 56 18 30 1003.5 1003.5 0.0
02/09:12pm 15.3 9.7 12.2 82 1.7 NNW 33 56 18 30 1003.8 1003.8 0.0
02/09:00pm 15.5 9.5 12.2 81 1.8 NNW 35 50 19 27 1004.1 1004.1 0.0
02/08:34pm 15.3 10.3 12.2 82 1.7 NNW 30 57 16 31 1003.9 1003.9 0.0
02/08:30pm 15.2 10.6 12.3 83 1.6 NNW 28 41 15 22 1003.9 1003.9 0.0
02/08:08pm 15.2 9.7 11.9 81 1.8 NNW 32 50 17 27 1004.0 1004.0 0.0
02/08:00pm 15.3 10.2 11.8 79 1.9 NNW 30 43 16 23 1004.1 1004.1 0.0
02/07:41pm 15.1 9.4 11.8 81 1.8 NNW 33 52 18 28 1004.5 1004.5 0.0
02/07:30pm 15.1 9.5 11.6 79 1.9 NNW 32 46 17 25 1004.7 1004.7 0.0
02/07:01pm 14.8 9.6 11.5 80 1.8 NNW 30 48 16 26 1004.8 1004.8 0.0
02/07:00pm 14.8 9.2 11.5 80 1.8 NNW 32 48 17 26 1004.9 1004.9 0.0
02/06:52pm 14.9 9.7 11.6 80 1.8 NNW 30 48 16 26 1004.8 1004.8 0.0
02/06:30pm 14.5 9.3 11.7 83 1.5 NNW 30 44 16 24 1005.0 1005.0 0.0
02/06:00pm 14.7 9.0 11.2 79 1.9 NNW 32 43 17 23 1004.8 1004.8 0.0
02/05:33pm 15.1 9.2 11.2 77 2.1 NNW 33 52 18 28 1005.2 1005.2 0.0
02/05:30pm 15.1 8.8 11.2 77 2.1 NNW 35 52 19 28 1005.2 1005.2 0.0
02/05:18pm 15.1 9.3 11.4 78 2.0 NNW 33 52 18 28 1005.0 1005.0 0.0
02/05:00pm 15.3 10.0 11.4 77 2.1 NNW 30 46 16 25 1004.9 1004.9 0.0
02/04:30pm 15.1 9.0 11.8 81 1.8 NNW 35 57 19 31 1004.9 1004.9 0.0
02/04:00pm 14.8 8.4 12.1 84 1.5 NNW 37 72 20 39 1005.2 1005.2 0.0
02/03:56pm 15.3 9.8 12.0 81 1.8 NNW 32 67 17 36 1005.3 1005.3 0.0
02/03:30pm 15.8 9.2 11.2 74 2.5 NNW 37 50 20 27 1005.5 1005.5 0.0
02/03:13pm 16.4 9.5 10.2 66 3.3 NNW 37 57 20 31 1005.3 1005.3 0.0
02/03:00pm 16.3 9.8 10.3 67 3.2 NNW 35 52 19 28 1005.4 1005.4 0.0
02/02:35pm 16.9 9.5 9.9 63 3.7 NNW 39 57 21 31 1005.5 1005.5 0.0
02/02:30pm 17.1 8.9 9.7 61 3.9 NNW 43 57 23 31 1005.6 1005.6 0.0
02/02:23pm 17.1 9.7 9.7 61 3.9 NNW 39 57 21 31 1005.7 1005.7 0.0
02/02:00pm 17.5 9.5 8.9 57 4.5 NW 41 52 22 28 1006.0 1006.0 0.0
02/01:38pm 17.2 10.3 10.3 64 3.7 NW 37 57 20 31 1006.2 1006.2 0.0
02/01:30pm 16.7 9.7 11.4 71 2.9 NNW 39 57 21 31 1006.3 1006.3 0.0
02/01:00pm 16.7 11.5 11.6 72 2.8 NNW 30 54 16 29 1006.6 1006.6 0.0
02/12:35pm 16.2 10.2 10.8 70 2.9 NNW 33 52 18 28 1007.1 1007.2 0.0
02/12:30pm 16.6 10.0 11.3 71 2.9 NNW 37 52 20 28 1007.2 1007.3 0.0
02/12:04pm 15.8 10.1 9.9 68 3.1 NNW 30 48 16 26 1007.5 1007.6 0.0
02/12:00pm 16.1 10.2 10.3 68 3.1 NNW 32 48 17 26 1007.6 1007.7 0.0
02/11:30am 16.0 9.9 9.7 66 3.3 NNW 32 50 17 27 1007.9 1008.0 0.0
02/11:00am 15.9 9.9 10.0 68 3.1 NNW 32 50 17 27 1008.4 1008.5 0.0
02/10:50am 14.8 8.7 9.6 71 2.7 NNW 32 52 17 28 1008.5 1008.6 0.0
02/10:30am 15.0 10.0 9.4 69 2.9 N 26 39 14 21 1008.6 1008.7 0.0
02/10:04am 14.7 9.2 9.0 68 2.9 N 28 50 15 27 1008.9 1009.0 0.0
02/10:00am 14.6 9.0 8.9 68 2.9 N 28 41 15 22 1009.0 1009.1 0.0
02/09:30am 13.5 7.5 8.8 73 2.4 N 30 43 16 23 1009.3 1009.4 0.0
02/09:00am 12.5 7.7 8.7 77 1.9 N 24 35 13 19 1009.5 1009.6 2.0
02/08:30am 11.4 6.8 8.1 80 1.6 N 22 33 12 18 1009.9 1010.0 2.0
02/08:00am 10.2 5.9 7.7 84 1.2 N 20 30 11 16 1010.2 1010.3 2.0
02/07:30am 9.6 5.2 7.3 85 1.1 N 20 30 11 16 1010.4 1010.5 2.0
02/07:00am 9.4 4.6 7.5 88 0.9 N 22 30 12 16 1010.3 1010.4 2.0
02/06:30am 9.5 5.2 7.8 89 0.8 N 20 28 11 15 1010.4 1010.5 2.0
02/06:00am 9.6 5.4 8.2 91 0.7 N 20 30 11 16 1010.6 1010.7 2.0
02/05:30am 9.7 5.7 8.3 91 0.7 N 19 28 10 15 1011.0 1011.0 2.0
02/05:00am 9.4 5.2 8.2 92 0.6 N 20 28 11 15 1011.1 1011.1 2.0

Other Formats:

Comma delimited format used in spreadsheet applications
http://www.bom.gov.au/fwo/IDS60801/IDS60801.94821.axf

JavaScript Object Notation format (JSON) in row-major order
http://www.bom.gov.au/fwo/IDS60801/IDS60801.94821.json